createdAt,value
2022-12-29T00:01:02.700Z,2.80
2022-12-29T00:03:29.947Z,2.70
2022-12-29T00:05:58.627Z,2.70
2022-12-29T00:08:41.148Z,2.70
2022-12-29T00:11:13.431Z,2.70
2022-12-29T00:13:59.852Z,2.60
2022-12-29T00:16:27.366Z,2.60
2022-12-29T00:18:54.496Z,2.60
2022-12-29T00:21:42.006Z,2.70
2022-12-29T00:24:27.143Z,2.60
2022-12-29T00:27:39.179Z,2.70
2022-12-29T00:30:39.459Z,2.70
2022-12-29T00:33:33.876Z,2.70
2022-12-29T00:36:09.390Z,2.70
2022-12-29T00:38:57.498Z,2.70
2022-12-29T00:41:42.865Z,2.60
2022-12-29T00:44:12.602Z,2.60
2022-12-29T00:46:43.821Z,2.60
2022-12-29T00:49:33.154Z,2.60
2022-12-29T00:52:12.509Z,2.70
2022-12-29T00:54:41.173Z,2.70
2022-12-29T00:57:10.484Z,2.70
2022-12-29T00:59:38.682Z,2.60
2022-12-29T01:02:06.156Z,2.60
2022-12-29T01:04:33.806Z,2.50
2022-12-29T01:07:01.740Z,2.50
2022-12-29T01:09:47.093Z,2.50
2022-12-29T01:12:14.375Z,2.60
2022-12-29T01:14:41.669Z,2.70
2022-12-29T01:17:08.758Z,2.80
2022-12-29T01:19:35.837Z,2.80
2022-12-29T01:22:03.016Z,2.80
2022-12-29T01:24:30.029Z,2.70
2022-12-29T01:26:57.061Z,2.70
2022-12-29T01:29:24.224Z,2.70
2022-12-29T01:31:51.396Z,2.70
2022-12-29T01:34:19.199Z,2.60
2022-12-29T01:36:46.200Z,2.60
2022-12-29T01:39:13.289Z,2.60
2022-12-29T01:41:41.687Z,2.70
2022-12-29T01:44:46.296Z,2.60
2022-12-29T01:47:15.588Z,2.60
2022-12-29T01:49:42.709Z,2.60
2022-12-29T01:52:09.744Z,2.60
2022-12-29T01:54:48.923Z,2.60
2022-12-29T01:57:22.341Z,2.60
2022-12-29T01:59:57.530Z,2.70
2022-12-29T02:02:25.555Z,2.80
2022-12-29T02:04:54.446Z,2.70
2022-12-29T02:07:25.709Z,2.70
2022-12-29T02:09:55.803Z,2.70
2022-12-29T02:12:24.895Z,2.70
2022-12-29T02:15:01.783Z,2.70
2022-12-29T02:17:43.947Z,2.70
2022-12-29T02:20:23.328Z,2.70
2022-12-29T02:23:21.285Z,2.60
2022-12-29T02:26:00.523Z,2.60
2022-12-29T02:28:46.210Z,2.60
2022-12-29T02:31:50.237Z,2.50
2022-12-29T02:34:45.537Z,2.50
2022-12-29T02:37:51.831Z,2.50
2022-12-29T02:40:40.966Z,2.60
2022-12-29T02:43:11.012Z,2.50
2022-12-29T02:46:00.131Z,2.50
2022-12-29T02:48:52.831Z,2.50
2022-12-29T02:51:31.928Z,2.60
2022-12-29T02:54:19.322Z,2.60
2022-12-29T02:56:46.375Z,2.60
2022-12-29T02:59:34.010Z,2.70
2022-12-29T03:02:18.169Z,2.80
2022-12-29T03:05:07.104Z,2.80
2022-12-29T03:08:00.826Z,2.80
2022-12-29T03:10:49.749Z,2.90
2022-12-29T03:13:50.456Z,3.00
2022-12-29T03:16:36.744Z,3.10
2022-12-29T03:19:15.176Z,3.10
2022-12-29T03:22:26.956Z,3.10
2022-12-29T03:24:57.666Z,3.10
2022-12-29T03:27:29.882Z,3.20
2022-12-29T03:30:01.649Z,3.20
2022-12-29T03:32:51.512Z,3.20
2022-12-29T03:35:23.611Z,3.20
2022-12-29T03:38:19.873Z,3.20
2022-12-29T03:40:51.288Z,3.20
2022-12-29T03:43:19.109Z,3.30
2022-12-29T03:45:46.160Z,3.20
2022-12-29T03:48:13.354Z,3.30
2022-12-29T03:50:41.411Z,3.30
2022-12-29T03:53:08.924Z,3.30
2022-12-29T03:55:36.026Z,3.40
2022-12-29T03:58:03.081Z,3.40
2022-12-29T04:00:30.614Z,3.30
2022-12-29T04:02:57.899Z,3.30
2022-12-29T04:05:25.144Z,3.30
2022-12-29T04:07:52.283Z,3.30
2022-12-29T04:10:19.562Z,3.40
2022-12-29T04:12:47.774Z,3.40
2022-12-29T04:15:15.067Z,3.40
2022-12-29T04:17:42.081Z,3.40
2022-12-29T04:20:28.501Z,3.40
2022-12-29T04:23:03.181Z,3.40
2022-12-29T04:25:31.432Z,3.50
2022-12-29T04:27:58.589Z,3.60
2022-12-29T04:30:25.719Z,3.50
2022-12-29T04:32:52.842Z,3.50
2022-12-29T04:35:19.949Z,3.60
2022-12-29T04:37:47.226Z,3.50
2022-12-29T04:40:14.300Z,3.60
2022-12-29T04:42:41.597Z,3.70
2022-12-29T04:45:09.215Z,3.60
2022-12-29T04:47:36.281Z,3.70
2022-12-29T04:50:03.674Z,3.70
2022-12-29T04:52:30.915Z,3.70
2022-12-29T04:54:57.971Z,3.70
2022-12-29T04:57:29.228Z,3.70
2022-12-29T04:59:56.308Z,3.70
2022-12-29T05:02:23.726Z,3.80
2022-12-29T05:04:51.094Z,3.80
2022-12-29T05:07:18.199Z,3.80
2022-12-29T05:09:45.430Z,3.80
2022-12-29T05:12:13.774Z,3.80
2022-12-29T05:14:40.976Z,3.90
2022-12-29T05:17:08.051Z,3.80
2022-12-29T05:19:35.026Z,3.80
2022-12-29T05:22:02.056Z,3.80
2022-12-29T05:24:29.293Z,3.80
2022-12-29T05:26:56.308Z,3.90
2022-12-29T05:29:23.449Z,3.90
2022-12-29T05:31:50.460Z,3.90
2022-12-29T05:34:17.521Z,3.90
2022-12-29T05:36:45.472Z,3.90
2022-12-29T05:39:12.387Z,3.90
2022-12-29T05:41:39.438Z,3.90
2022-12-29T05:44:06.626Z,3.90
2022-12-29T05:46:33.687Z,3.90
2022-12-29T05:49:00.666Z,3.90
2022-12-29T05:51:27.767Z,3.90
2022-12-29T05:53:54.800Z,4.00
2022-12-29T05:56:21.841Z,3.90
2022-12-29T05:58:48.869Z,4.00
2022-12-29T06:01:15.840Z,4.00
2022-12-29T06:03:48.176Z,4.00
2022-12-29T06:06:15.905Z,4.00
2022-12-29T06:08:42.965Z,4.00
2022-12-29T06:11:10.556Z,4.00
2022-12-29T06:13:37.806Z,4.00
2022-12-29T06:16:05.538Z,4.10
2022-12-29T06:18:32.523Z,4.00
2022-12-29T06:21:04.055Z,4.10
2022-12-29T06:23:32.366Z,4.20
2022-12-29T06:25:59.855Z,4.20
2022-12-29T06:28:27.184Z,4.10
2022-12-29T06:30:54.208Z,4.20
2022-12-29T06:33:22.040Z,4.10
2022-12-29T06:35:49.298Z,4.10
2022-12-29T06:38:16.383Z,4.10
2022-12-29T06:40:46.167Z,4.10
2022-12-29T06:43:13.526Z,4.20
2022-12-29T06:45:41.947Z,4.20
2022-12-29T06:48:09.536Z,4.20
2022-12-29T06:50:36.851Z,4.20
2022-12-29T06:53:04.254Z,4.20
2022-12-29T06:55:31.379Z,4.20
2022-12-29T06:57:59.177Z,4.20
2022-12-29T07:00:26.603Z,4.20
2022-12-29T07:02:55.606Z,4.20
2022-12-29T07:05:22.563Z,4.20
2022-12-29T07:07:49.516Z,4.20
2022-12-29T07:10:16.582Z,4.20
2022-12-29T07:12:44.255Z,4.30
2022-12-29T07:15:11.849Z,4.30
2022-12-29T07:17:39.193Z,4.30
2022-12-29T07:20:09.538Z,4.30
2022-12-29T07:22:36.750Z,4.30
2022-12-29T07:25:04.465Z,4.30
2022-12-29T07:27:31.458Z,4.30
2022-12-29T07:29:58.605Z,4.30
2022-12-29T07:32:25.592Z,4.30
2022-12-29T07:34:53.593Z,4.30
2022-12-29T07:37:21.064Z,4.30
2022-12-29T07:39:48.398Z,4.30
2022-12-29T07:42:15.383Z,4.30
2022-12-29T07:44:42.474Z,4.30
2022-12-29T07:47:09.549Z,4.30
2022-12-29T07:49:36.615Z,4.30
2022-12-29T07:52:03.567Z,4.30
2022-12-29T07:54:30.597Z,4.30
2022-12-29T07:56:58.858Z,4.30
2022-12-29T07:59:25.901Z,4.30
2022-12-29T08:01:52.993Z,4.30
2022-12-29T08:04:20.543Z,4.30
2022-12-29T08:06:47.610Z,4.30
2022-12-29T08:09:21.564Z,4.30
2022-12-29T08:11:49.389Z,4.30
2022-12-29T08:14:16.426Z,4.40
2022-12-29T08:16:43.467Z,4.40
2022-12-29T08:19:12.878Z,4.40
2022-12-29T08:21:40.320Z,4.40
2022-12-29T08:24:09.391Z,4.40
2022-12-29T08:26:36.639Z,4.40
2022-12-29T08:29:03.756Z,4.40
2022-12-29T08:31:30.918Z,4.50
2022-12-29T08:33:58.185Z,4.40
2022-12-29T08:36:25.255Z,4.50
2022-12-29T08:38:52.292Z,4.50
2022-12-29T08:41:19.272Z,4.50
2022-12-29T08:43:50.517Z,4.50
2022-12-29T08:46:18.221Z,4.50
2022-12-29T08:48:45.336Z,4.50
2022-12-29T08:51:12.521Z,4.50
2022-12-29T08:53:39.623Z,4.50
2022-12-29T08:56:07.306Z,4.50
2022-12-29T08:58:34.651Z,4.50
2022-12-29T09:01:01.827Z,4.50
2022-12-29T09:04:12.219Z,4.50
2022-12-29T09:06:18.406Z,4.60
2022-12-29T09:08:45.741Z,4.60
2022-12-29T09:11:20.905Z,4.60
2022-12-29T09:13:48.727Z,4.60
2022-12-29T09:16:18.434Z,4.60
2022-12-29T09:18:46.459Z,4.60
2022-12-29T09:21:14.000Z,4.70
2022-12-29T09:23:41.661Z,4.70
2022-12-29T09:26:09.735Z,4.70
2022-12-29T09:28:37.855Z,4.80
2022-12-29T09:31:05.349Z,4.80
2022-12-29T09:33:34.892Z,4.80
2022-12-29T09:36:02.612Z,4.80
2022-12-29T09:38:30.240Z,4.80
2022-12-29T09:41:01.083Z,4.80
2022-12-29T09:43:59.392Z,4.80
2022-12-29T09:46:38.033Z,4.80
2022-12-29T09:49:21.525Z,4.90
2022-12-29T09:51:54.944Z,4.90
2022-12-29T09:54:42.620Z,4.90
2022-12-29T09:57:23.166Z,4.90
2022-12-29T09:59:56.548Z,5.00
2022-12-29T10:02:56.227Z,5.00
2022-12-29T10:05:32.317Z,5.00
2022-12-29T10:08:17.742Z,5.00
2022-12-29T10:11:15.271Z,5.00
2022-12-29T10:14:17.617Z,5.00
2022-12-29T10:16:56.738Z,5.10
2022-12-29T10:19:45.414Z,5.10
2022-12-29T10:22:50.153Z,5.00
2022-12-29T10:25:21.603Z,5.00
2022-12-29T10:27:50.461Z,5.10
2022-12-29T10:30:21.070Z,5.10
2022-12-29T10:32:56.039Z,5.10
2022-12-29T10:35:35.116Z,5.00
2022-12-29T10:38:36.999Z,5.10
2022-12-29T10:41:13.029Z,5.00
2022-12-29T10:43:47.993Z,5.10
2022-12-29T10:46:19.897Z,5.10
2022-12-29T10:48:47.830Z,5.10
2022-12-29T10:51:29.146Z,5.10
2022-12-29T10:54:02.710Z,5.20
2022-12-29T10:56:41.108Z,5.20
2022-12-29T10:59:14.616Z,5.20
2022-12-29T11:02:06.101Z,5.20
2022-12-29T11:04:47.720Z,5.20
2022-12-29T11:07:19.882Z,5.20
2022-12-29T11:09:49.729Z,5.20
2022-12-29T11:12:21.540Z,5.30
2022-12-29T11:15:01.585Z,5.30
2022-12-29T11:17:28.679Z,5.30
2022-12-29T11:19:55.844Z,5.30
2022-12-29T11:22:26.522Z,5.30
2022-12-29T11:24:56.072Z,5.30
2022-12-29T11:27:25.267Z,5.30
2022-12-29T11:29:56.159Z,5.40
2022-12-29T11:32:28.844Z,5.40
2022-12-29T11:34:58.824Z,5.40
2022-12-29T11:37:40.349Z,5.40
2022-12-29T11:40:22.068Z,5.40
2022-12-29T11:42:57.895Z,5.40
2022-12-29T11:45:26.767Z,5.40
2022-12-29T11:48:01.650Z,5.40
2022-12-29T11:50:33.168Z,5.40
2022-12-29T11:53:03.276Z,5.40
2022-12-29T11:55:31.959Z,5.40
2022-12-29T11:58:02.661Z,5.40
2022-12-29T12:00:33.738Z,5.50
2022-12-29T12:03:19.051Z,5.50
2022-12-29T12:06:02.662Z,5.40
2022-12-29T12:08:41.193Z,5.40
2022-12-29T12:11:29.589Z,5.40
2022-12-29T12:14:08.573Z,5.40
2022-12-29T12:16:44.653Z,5.40
2022-12-29T12:19:34.146Z,5.30
2022-12-29T12:22:12.006Z,5.40
2022-12-29T12:25:02.810Z,5.50
2022-12-29T12:27:43.653Z,5.40
2022-12-29T12:30:21.248Z,5.40
2022-12-29T12:33:04.848Z,5.40
2022-12-29T12:36:03.621Z,5.40
2022-12-29T12:38:36.713Z,5.50
2022-12-29T12:41:09.796Z,5.50
2022-12-29T12:43:55.290Z,5.50
2022-12-29T12:46:48.094Z,5.50
2022-12-29T12:49:15.070Z,5.50
2022-12-29T12:52:02.877Z,5.50
2022-12-29T12:54:44.022Z,5.50
2022-12-29T12:57:20.270Z,5.60
2022-12-29T12:59:59.248Z,5.50
2022-12-29T13:02:35.458Z,5.60
2022-12-29T13:05:26.554Z,5.50
2022-12-29T13:08:38.579Z,5.50
2022-12-29T13:11:11.609Z,5.60
2022-12-29T13:13:55.108Z,5.50
2022-12-29T13:16:38.586Z,5.60
2022-12-29T13:19:17.527Z,5.50
2022-12-29T13:22:07.202Z,5.60
2022-12-29T13:25:03.464Z,5.50
2022-12-29T13:27:45.907Z,5.50
2022-12-29T13:30:18.755Z,5.60
2022-12-29T13:33:21.403Z,5.50
2022-12-29T13:36:12.025Z,5.50
2022-12-29T13:38:52.038Z,5.60
2022-12-29T13:41:27.053Z,5.50
2022-12-29T13:43:56.432Z,5.60
2022-12-29T13:46:29.604Z,5.50
2022-12-29T13:49:16.552Z,5.50
2022-12-29T13:51:51.961Z,5.50
2022-12-29T13:55:07.962Z,5.50
2022-12-29T13:58:03.254Z,5.50
2022-12-29T14:00:45.236Z,5.50
2022-12-29T14:03:31.445Z,5.50
2022-12-29T14:06:21.189Z,5.50
2022-12-29T14:08:49.775Z,5.60
2022-12-29T14:11:19.223Z,5.50
2022-12-29T14:13:48.291Z,5.50
2022-12-29T14:16:45.658Z,5.50
2022-12-29T14:19:33.618Z,5.50
2022-12-29T14:22:05.717Z,5.50
2022-12-29T14:24:38.713Z,5.50
2022-12-29T14:27:11.837Z,5.50
2022-12-29T14:29:42.377Z,5.50
2022-12-29T14:32:27.752Z,5.50
2022-12-29T14:35:00.121Z,5.60
2022-12-29T14:37:31.403Z,5.50
2022-12-29T14:40:20.241Z,5.60
2022-12-29T14:42:49.425Z,5.60
2022-12-29T14:45:16.365Z,5.60
2022-12-29T14:47:49.159Z,5.60
2022-12-29T14:50:22.180Z,5.70
2022-12-29T14:53:04.209Z,5.70
2022-12-29T14:55:47.978Z,5.70
2022-12-29T14:58:38.432Z,5.70
2022-12-29T15:01:16.201Z,5.70
2022-12-29T15:03:51.329Z,5.70
2022-12-29T15:06:23.558Z,5.80
2022-12-29T15:08:59.911Z,5.80
2022-12-29T15:11:49.738Z,5.80
2022-12-29T15:14:40.632Z,5.90
2022-12-29T15:17:32.065Z,5.90
2022-12-29T15:20:03.939Z,5.90
2022-12-29T15:22:33.394Z,5.80
2022-12-29T15:25:00.511Z,5.90
2022-12-29T15:27:28.260Z,5.90
2022-12-29T15:30:03.160Z,5.90
2022-12-29T15:32:40.667Z,5.90
2022-12-29T15:35:29.124Z,5.90
2022-12-29T15:37:56.910Z,5.90
2022-12-29T15:40:32.672Z,5.90
2022-12-29T15:43:26.673Z,6.00
2022-12-29T15:45:56.162Z,6.10
2022-12-29T15:48:25.467Z,6.00
2022-12-29T15:50:53.223Z,6.00
2022-12-29T15:53:29.432Z,6.00
2022-12-29T15:56:09.898Z,6.00
2022-12-29T15:58:52.014Z,6.00
2022-12-29T16:01:37.640Z,6.00
2022-12-29T16:04:08.534Z,6.00
2022-12-29T16:06:45.131Z,6.00
2022-12-29T16:09:20.943Z,6.00
2022-12-29T16:11:55.751Z,6.00
2022-12-29T16:14:34.777Z,6.00
2022-12-29T16:17:05.408Z,5.90
2022-12-29T16:19:38.651Z,5.90
2022-12-29T16:22:12.870Z,5.90
2022-12-29T16:24:41.755Z,5.90
2022-12-29T16:27:21.325Z,6.00
2022-12-29T16:29:56.527Z,5.90
2022-12-29T16:32:32.553Z,6.00
2022-12-29T16:35:28.456Z,6.10
2022-12-29T16:38:23.074Z,6.10
2022-12-29T16:40:57.712Z,6.10
2022-12-29T16:43:31.587Z,6.10
2022-12-29T16:46:01.622Z,6.10
2022-12-29T16:48:46.614Z,6.10
2022-12-29T16:51:17.477Z,6.10
2022-12-29T16:53:52.600Z,6.20
2022-12-29T16:56:26.707Z,6.20
2022-12-29T16:59:17.934Z,6.10
2022-12-29T17:01:45.318Z,6.10
2022-12-29T17:04:14.617Z,6.20
2022-12-29T17:06:42.145Z,6.10
2022-12-29T17:09:22.773Z,6.10
2022-12-29T17:12:00.277Z,6.10
2022-12-29T17:14:47.882Z,6.10
2022-12-29T17:17:16.636Z,6.10
2022-12-29T17:19:48.105Z,6.10
2022-12-29T17:22:19.368Z,6.10
2022-12-29T17:24:46.370Z,6.10
2022-12-29T17:27:25.213Z,6.10
2022-12-29T17:29:55.365Z,6.10
2022-12-29T17:32:22.368Z,6.10
2022-12-29T17:34:49.417Z,6.00
2022-12-29T17:37:36.972Z,6.00
2022-12-29T17:40:07.485Z,6.10
2022-12-29T17:42:37.949Z,6.10
2022-12-29T17:45:05.679Z,6.00
2022-12-29T17:47:32.891Z,6.00
2022-12-29T17:50:01.056Z,6.10
2022-12-29T17:52:28.335Z,6.10
2022-12-29T17:54:56.701Z,6.10
2022-12-29T17:57:23.679Z,6.10
2022-12-29T17:59:51.033Z,6.10
2022-12-29T18:02:32.527Z,6.10
2022-12-29T18:05:00.036Z,6.20
2022-12-29T18:07:35.381Z,6.10
2022-12-29T18:10:04.063Z,6.10
2022-12-29T18:12:39.818Z,6.10
2022-12-29T18:15:11.573Z,6.10
2022-12-29T18:17:38.515Z,6.10
2022-12-29T18:20:06.897Z,6.00
2022-12-29T18:22:34.768Z,6.10
2022-12-29T18:25:03.198Z,6.10
2022-12-29T18:27:30.433Z,6.00
2022-12-29T18:29:57.960Z,6.10
2022-12-29T18:32:25.071Z,6.10
2022-12-29T18:34:52.193Z,6.00
2022-12-29T18:37:19.575Z,6.10
2022-12-29T18:39:46.543Z,6.00
2022-12-29T18:42:18.625Z,6.00
2022-12-29T18:44:45.720Z,6.10
2022-12-29T18:47:12.704Z,6.00
2022-12-29T18:49:39.822Z,6.00
2022-12-29T18:52:06.906Z,6.00
2022-12-29T18:54:34.254Z,6.00
2022-12-29T18:57:01.982Z,6.10
2022-12-29T18:59:29.022Z,6.10
2022-12-29T19:01:56.000Z,6.10
2022-12-29T19:04:23.290Z,6.10
2022-12-29T19:06:50.320Z,6.00
2022-12-29T19:09:17.413Z,6.10
2022-12-29T19:11:44.531Z,6.10
2022-12-29T19:14:17.313Z,6.10
2022-12-29T19:16:44.583Z,6.10
2022-12-29T19:19:15.677Z,6.10
2022-12-29T19:21:43.475Z,6.10
2022-12-29T19:24:10.832Z,6.20
2022-12-29T19:26:39.720Z,6.20
2022-12-29T19:29:11.613Z,6.20
2022-12-29T19:31:39.760Z,6.20
2022-12-29T19:34:06.940Z,6.20
2022-12-29T19:36:34.456Z,6.20
2022-12-29T19:39:01.456Z,6.20
2022-12-29T19:41:29.106Z,6.20
2022-12-29T19:43:56.876Z,6.20
2022-12-29T19:46:25.556Z,6.20
2022-12-29T19:48:55.017Z,6.20
2022-12-29T19:51:21.982Z,6.20
2022-12-29T19:53:49.028Z,6.20
2022-12-29T19:56:18.676Z,6.20
2022-12-29T19:58:47.722Z,6.20
2022-12-29T20:01:18.176Z,6.20
2022-12-29T20:03:45.554Z,6.20
2022-12-29T20:06:13.188Z,6.20
2022-12-29T20:08:40.681Z,6.30
2022-12-29T20:11:13.936Z,6.30
2022-12-29T20:13:43.118Z,6.20
2022-12-29T20:16:13.676Z,6.30
2022-12-29T20:18:40.979Z,6.30
2022-12-29T20:21:12.249Z,6.30
2022-12-29T20:23:41.894Z,6.30
2022-12-29T20:26:13.409Z,6.20
2022-12-29T20:28:40.922Z,6.30
2022-12-29T20:31:20.388Z,6.20
2022-12-29T20:33:48.058Z,6.20
2022-12-29T20:36:19.005Z,6.20
2022-12-29T20:38:50.665Z,6.20
2022-12-29T20:41:18.447Z,6.20
2022-12-29T20:43:45.844Z,6.20
2022-12-29T20:46:19.543Z,6.20
2022-12-29T20:48:48.444Z,6.20
2022-12-29T20:51:15.909Z,6.20
2022-12-29T20:53:42.880Z,6.10
2022-12-29T20:56:16.281Z,6.10
2022-12-29T20:59:08.585Z,6.10
2022-12-29T21:01:30.749Z,6.10
2022-12-29T21:03:57.884Z,6.10
2022-12-29T21:06:24.862Z,6.00
2022-12-29T21:08:53.622Z,6.00
2022-12-29T21:11:21.747Z,6.00
2022-12-29T21:13:49.727Z,6.00
2022-12-29T21:16:19.060Z,6.00
2022-12-29T21:18:49.019Z,6.00
2022-12-29T21:21:24.831Z,6.00
2022-12-29T21:23:52.934Z,6.00
2022-12-29T21:26:22.333Z,6.00
2022-12-29T21:28:51.123Z,6.10
2022-12-29T21:31:33.666Z,6.10
2022-12-29T21:34:01.908Z,6.00
2022-12-29T21:36:30.056Z,6.00
2022-12-29T21:38:58.500Z,6.00
2022-12-29T21:41:25.902Z,6.00
2022-12-29T21:44:11.846Z,6.10
2022-12-29T21:46:41.215Z,6.00
2022-12-29T21:49:09.024Z,6.00
2022-12-29T21:51:52.806Z,6.10
2022-12-29T21:54:40.031Z,6.10
2022-12-29T21:57:08.175Z,6.00
2022-12-29T21:59:53.807Z,6.00
2022-12-29T22:02:45.711Z,6.00
2022-12-29T22:05:34.551Z,6.00
2022-12-29T22:08:21.622Z,6.00
2022-12-29T22:11:07.909Z,5.90
2022-12-29T22:13:39.536Z,5.90
2022-12-29T22:16:09.068Z,5.90
2022-12-29T22:18:36.834Z,5.90
2022-12-29T22:21:06.171Z,5.90
2022-12-29T22:23:33.477Z,5.90
2022-12-29T22:26:09.229Z,6.00
2022-12-29T22:28:40.053Z,5.90
2022-12-29T22:31:21.845Z,5.90
2022-12-29T22:33:48.897Z,5.90
2022-12-29T22:36:15.864Z,6.00
2022-12-29T22:38:42.843Z,5.90
2022-12-29T22:41:09.900Z,5.90
2022-12-29T22:43:36.961Z,6.00
2022-12-29T22:46:05.454Z,5.90
2022-12-29T22:48:33.320Z,5.80
2022-12-29T22:51:00.583Z,5.80
2022-12-29T22:53:27.612Z,5.80
2022-12-29T22:56:05.340Z,5.80
2022-12-29T22:58:32.457Z,5.80
2022-12-29T23:01:00.181Z,5.80
2022-12-29T23:03:27.585Z,5.80
2022-12-29T23:06:02.663Z,5.90
2022-12-29T23:08:33.564Z,5.80
2022-12-29T23:11:00.897Z,5.80
2022-12-29T23:13:28.089Z,5.80
2022-12-29T23:15:55.548Z,5.80
2022-12-29T23:18:22.854Z,5.90
2022-12-29T23:20:49.947Z,5.80
2022-12-29T23:23:36.946Z,5.80
2022-12-29T23:26:04.434Z,5.70
2022-12-29T23:28:31.436Z,5.70
2022-12-29T23:30:58.738Z,5.70
2022-12-29T23:33:26.127Z,5.60
2022-12-29T23:35:53.089Z,5.60
2022-12-29T23:38:20.325Z,5.60
2022-12-29T23:40:47.495Z,5.60
2022-12-29T23:43:14.496Z,5.60
2022-12-29T23:45:46.001Z,5.60
2022-12-29T23:48:16.019Z,5.60
2022-12-29T23:50:43.106Z,5.60
2022-12-29T23:53:11.433Z,5.60
2022-12-29T23:55:43.572Z,5.60
2022-12-29T23:58:11.389Z,5.70
